sensor_id;sensor_type;location;lat;lon;timestamp;pressure;altitude;pressure_sealevel;temperature;humidity
12475;BME280;6302;42.624;23.334;2022-10-15T00:02:13;93516.56;;;11.74;100.00
12475;BME280;6302;42.624;23.334;2022-10-15T00:04:42;93521.09;;;11.73;100.00
12475;BME280;6302;42.624;23.334;2022-10-15T00:07:08;93519.97;;;11.74;100.00
12475;BME280;6302;42.624;23.334;2022-10-15T00:09:35;93515.47;;;11.64;100.00
12475;BME280;6302;42.624;23.334;2022-10-15T00:12:02;93512.41;;;11.69;100.00
12475;BME280;6302;42.624;23.334;2022-10-15T00:14:29;93525.31;;;11.64;100.00
12475;BME280;6302;42.624;23.334;2022-10-15T00:16:56;93515.88;;;11.59;100.00
12475;BME280;6302;42.624;23.334;2022-10-15T00:19:23;93512.06;;;11.64;100.00
12475;BME280;6302;42.624;23.334;2022-10-15T00:21:51;93496.63;;;11.52;100.00
12475;BME280;6302;42.624;23.334;2022-10-15T00:24:17;93509.09;;;11.55;100.00
12475;BME280;6302;42.624;23.334;2022-10-15T00:26:44;93510.94;;;11.61;100.00
12475;BME280;6302;42.624;23.334;2022-10-15T00:29:11;93505.66;;;11.58;100.00
12475;BME280;6302;42.624;23.334;2022-10-15T00:31:38;93510.25;;;11.54;100.00
12475;BME280;6302;42.624;23.334;2022-10-15T00:34:04;93506.81;;;11.53;100.00
12475;BME280;6302;42.624;23.334;2022-10-15T00:36:33;93513.31;;;11.49;100.00
12475;BME280;6302;42.624;23.334;2022-10-15T00:39:06;93509.53;;;11.50;100.00
12475;BME280;6302;42.624;23.334;2022-10-15T00:41:34;93501.56;;;11.50;100.00
12475;BME280;6302;42.624;23.334;2022-10-15T00:44:42;93498.13;;;11.53;100.00
12475;BME280;6302;42.624;23.334;2022-10-15T00:46:51;93492.06;;;11.52;100.00
12475;BME280;6302;42.624;23.334;2022-10-15T00:49:23;93485.59;;;11.53;100.00
12475;BME280;6302;42.624;23.334;2022-10-15T00:51:54;93478.47;;;11.47;100.00
12475;BME280;6302;42.624;23.334;2022-10-15T00:54:26;93477.69;;;11.50;100.00
12475;BME280;6302;42.624;23.334;2022-10-15T00:56:54;93474.63;;;11.51;100.00
12475;BME280;6302;42.624;23.334;2022-10-15T00:59:23;93486.00;;;11.52;100.00
12475;BME280;6302;42.624;23.334;2022-10-15T01:01:50;93483.00;;;11.50;100.00
12475;BME280;6302;42.624;23.334;2022-10-15T01:04:18;93479.91;;;11.55;100.00
12475;BME280;6302;42.624;23.334;2022-10-15T01:06:48;93480.63;;;11.59;100.00
12475;BME280;6302;42.624;23.334;2022-10-15T01:09:14;93485.94;;;11.59;100.00
12475;BME280;6302;42.624;23.334;2022-10-15T01:11:45;93479.91;;;11.55;100.00
12475;BME280;6302;42.624;23.334;2022-10-15T01:14:27;93473.81;;;11.58;100.00
12475;BME280;6302;42.624;23.334;2022-10-15T01:17:05;93475.38;;;11.52;100.00
12475;BME280;6302;42.624;23.334;2022-10-15T01:19:57;93480.66;;;11.55;100.00
12475;BME280;6302;42.624;23.334;2022-10-15T01:22:36;93480.28;;;11.57;100.00
12475;BME280;6302;42.624;23.334;2022-10-15T01:25:17;93479.84;;;11.62;100.00
12475;BME280;6302;42.624;23.334;2022-10-15T01:27:55;93482.84;;;11.67;100.00
12475;BME280;6302;42.624;23.334;2022-10-15T01:30:27;93478.28;;;11.68;100.00
12475;BME280;6302;42.624;23.334;2022-10-15T01:33:26;93485.03;;;11.76;100.00
12475;BME280;6302;42.624;23.334;2022-10-15T01:36:01;93477.09;;;11.76;100.00
12475;BME280;6302;42.624;23.334;2022-10-15T01:38:42;93475.97;;;11.73;100.00
12475;BME280;6302;42.624;23.334;2022-10-15T01:41:15;93483.50;;;11.79;100.00
12475;BME280;6302;42.624;23.334;2022-10-15T01:43:51;93487.28;;;11.81;100.00
12475;BME280;6302;42.624;23.334;2022-10-15T01:46:26;93484.28;;;11.75;100.00
12475;BME280;6302;42.624;23.334;2022-10-15T01:48:58;93481.63;;;11.75;100.00
12475;BME280;6302;42.624;23.334;2022-10-15T01:51:29;93479.31;;;11.81;100.00
12475;BME280;6302;42.624;23.334;2022-10-15T01:53:59;93488.75;;;11.86;100.00
12475;BME280;6302;42.624;23.334;2022-10-15T01:56:27;93488.72;;;11.89;100.00
12475;BME280;6302;42.624;23.334;2022-10-15T01:58:55;93478.44;;;11.91;100.00
12475;BME280;6302;42.624;23.334;2022-10-15T02:01:24;93489.06;;;11.91;100.00
12475;BME280;6302;42.624;23.334;2022-10-15T02:03:52;93487.53;;;11.94;100.00
12475;BME280;6302;42.624;23.334;2022-10-15T02:06:22;93494.03;;;11.89;100.00
12475;BME280;6302;42.624;23.334;2022-10-15T02:09:02;93492.84;;;11.94;100.00
12475;BME280;6302;42.624;23.334;2022-10-15T02:11:40;93490.53;;;11.96;100.00
12475;BME280;6302;42.624;23.334;2022-10-15T02:14:15;93493.59;;;11.94;100.00
12475;BME280;6302;42.624;23.334;2022-10-15T02:16:53;93483.41;;;11.89;100.00
12475;BME280;6302;42.624;23.334;2022-10-15T02:19:29;93487.09;;;11.99;100.00
12475;BME280;6302;42.624;23.334;2022-10-15T02:22:02;93482.63;;;11.92;100.00
12475;BME280;6302;42.624;23.334;2022-10-15T02:24:34;93485.28;;;11.92;100.00
12475;BME280;6302;42.624;23.334;2022-10-15T02:27:05;93490.22;;;11.90;100.00
12475;BME280;6302;42.624;23.334;2022-10-15T02:29:34;93486.44;;;11.88;100.00
12475;BME280;6302;42.624;23.334;2022-10-15T02:32:04;93483.41;;;11.89;100.00
12475;BME280;6302;42.624;23.334;2022-10-15T02:34:33;93489.44;;;11.93;100.00
12475;BME280;6302;42.624;23.334;2022-10-15T02:37:02;93486.41;;;11.91;100.00
12475;BME280;6302;42.624;23.334;2022-10-15T02:39:30;93492.91;;;11.87;100.00
12475;BME280;6302;42.624;23.334;2022-10-15T02:41:57;93493.69;;;11.87;100.00
12475;BME280;6302;42.624;23.334;2022-10-15T02:44:24;93477.41;;;11.82;100.00
12475;BME280;6302;42.624;23.334;2022-10-15T02:46:51;93494.03;;;11.89;100.00
12475;BME280;6302;42.624;23.334;2022-10-15T02:49:20;93492.09;;;11.93;100.00
12475;BME280;6302;42.624;23.334;2022-10-15T02:51:46;93490.94;;;11.94;100.00
12475;BME280;6302;42.624;23.334;2022-10-15T02:54:13;93482.66;;;11.89;100.00
12475;BME280;6302;42.624;23.334;2022-10-15T02:56:40;93489.78;;;11.95;100.00
12475;BME280;6302;42.624;23.334;2022-10-15T02:59:07;93491.72;;;11.95;100.00
12475;BME280;6302;42.624;23.334;2022-10-15T03:01:33;93478.81;;;11.93;100.00
12475;BME280;6302;42.624;23.334;2022-10-15T03:04:01;93483.34;;;11.96;100.00
12475;BME280;6302;42.624;23.334;2022-10-15T03:06:29;93481.47;;;11.93;100.00
12475;BME280;6302;42.624;23.334;2022-10-15T03:08:55;93486.41;;;11.91;100.00
12475;BME280;6302;42.624;23.334;2022-10-15T03:11:22;93491.81;;;11.81;100.00
12475;BME280;6302;42.624;23.334;2022-10-15T03:13:49;93484.97;;;11.83;100.00
12475;BME280;6302;42.624;23.334;2022-10-15T03:16:16;93489.53;;;11.83;100.00
12475;BME280;6302;42.624;23.334;2022-10-15T03:18:43;93490.41;;;11.72;100.00
12475;BME280;6302;42.624;23.334;2022-10-15T03:21:09;93498.69;;;11.78;100.00
12475;BME280;6302;42.624;23.334;2022-10-15T03:23:38;93490.34;;;11.76;100.00
12475;BME280;6302;42.624;23.334;2022-10-15T03:26:05;93490.28;;;11.83;100.00
12475;BME280;6302;42.624;23.334;2022-10-15T03:28:32;93496.75;;;11.82;100.00
12475;BME280;6302;42.624;23.334;2022-10-15T03:30:58;93482.03;;;11.74;100.00
12475;BME280;6302;42.624;23.334;2022-10-15T03:33:25;93487.25;;;11.85;100.00
12475;BME280;6302;42.624;23.334;2022-10-15T03:35:53;93499.41;;;11.82;100.00
12475;BME280;6302;42.624;23.334;2022-10-15T03:38:19;93489.56;;;11.79;100.00
12475;BME280;6302;42.624;23.334;2022-10-15T03:40:48;93492.63;;;11.78;100.00
12475;BME280;6302;42.624;23.334;2022-10-15T03:43:14;93486.56;;;11.77;100.00
12475;BME280;6302;42.624;23.334;2022-10-15T03:45:41;93491.47;;;11.79;100.00
12475;BME280;6302;42.624;23.334;2022-10-15T03:48:08;93497.59;;;11.72;100.00
12475;BME280;6302;42.624;23.334;2022-10-15T03:50:35;93490.00;;;11.74;100.00
12475;BME280;6302;42.624;23.334;2022-10-15T03:53:02;93507.44;;;11.75;100.00
12475;BME280;6302;42.624;23.334;2022-10-15T03:55:29;93497.19;;;11.77;100.00
12475;BME280;6302;42.624;23.334;2022-10-15T03:57:58;93489.66;;;11.72;100.00
12475;BME280;6302;42.624;23.334;2022-10-15T04:00:25;93499.44;;;11.79;100.00
12475;BME280;6302;42.624;23.334;2022-10-15T04:02:52;93496.03;;;11.78;100.00
12475;BME280;6302;42.624;23.334;2022-10-15T04:05:18;93506.28;;;11.76;100.00
12475;BME280;6302;42.624;23.334;2022-10-15T04:07:45;93505.22;;;11.70;100.00
12475;BME280;6302;42.624;23.334;2022-10-15T04:10:12;93510.09;;;11.75;100.00
12475;BME280;6302;42.624;23.334;2022-10-15T04:12:39;93499.50;;;11.71;100.00
12475;BME280;6302;42.624;23.334;2022-10-15T04:15:08;93508.22;;;11.72;100.00
12475;BME280;6302;42.624;23.334;2022-10-15T04:17:35;93503.69;;;11.69;100.00
12475;BME280;6302;42.624;23.334;2022-10-15T04:20:02;93507.09;;;11.66;100.00
12475;BME280;6302;42.624;23.334;2022-10-15T04:22:29;93504.09;;;11.60;100.00
12475;BME280;6302;42.624;23.334;2022-10-15T04:24:56;93507.59;;;11.54;100.00
12475;BME280;6302;42.624;23.334;2022-10-15T04:27:23;93508.41;;;11.47;100.00
12475;BME280;6302;42.624;23.334;2022-10-15T04:29:49;93515.63;;;11.47;100.00
12475;BME280;6302;42.624;23.334;2022-10-15T04:32:18;93512.25;;;11.43;100.00
12475;BME280;6302;42.624;23.334;2022-10-15T04:34:45;93511.47;;;11.42;100.00
12475;BME280;6302;42.624;23.334;2022-10-15T04:37:12;93510.72;;;11.42;100.00
12475;BME280;6302;42.624;23.334;2022-10-15T04:39:39;93511.50;;;11.39;100.00
12475;BME280;6302;42.624;23.334;2022-10-15T04:42:06;93517.97;;;11.38;100.00
12475;BME280;6302;42.624;23.334;2022-10-15T04:44:33;93519.09;;;11.37;100.00
12475;BME280;6302;42.624;23.334;2022-10-15T04:47:00;93513.03;;;11.36;100.00
12475;BME280;6302;42.624;23.334;2022-10-15T04:49:28;93519.56;;;11.25;100.00
12475;BME280;6302;42.624;23.334;2022-10-15T04:51:55;93527.88;;;11.27;100.00
12475;BME280;6302;42.624;23.334;2022-10-15T04:54:21;93534.31;;;11.29;100.00
12475;BME280;6302;42.624;23.334;2022-10-15T04:56:48;93527.06;;;11.33;100.00
12475;BME280;6302;42.624;23.334;2022-10-15T04:59:15;93530.13;;;11.32;100.00
12475;BME280;6302;42.624;23.334;2022-10-15T05:01:42;93532.38;;;11.33;100.00
12475;BME280;6302;42.624;23.334;2022-10-15T05:04:09;93530.47;;;11.34;100.00
12475;BME280;6302;42.624;23.334;2022-10-15T05:06:37;93519.22;;;11.23;100.00
12475;BME280;6302;42.624;23.334;2022-10-15T05:09:04;93535.38;;;11.39;100.00
12475;BME280;6302;42.624;23.334;2022-10-15T05:11:34;93533.13;;;11.37;100.00
12475;BME280;6302;42.624;23.334;2022-10-15T05:14:02;93536.53;;;11.38;100.00
12475;BME280;6302;42.624;23.334;2022-10-15T05:16:29;93546.75;;;11.39;100.00
12475;BME280;6302;42.624;23.334;2022-10-15T05:18:58;93544.84;;;11.40;100.00
12475;BME280;6302;42.624;23.334;2022-10-15T05:21:26;93542.22;;;11.36;100.00
12475;BME280;6302;42.624;23.334;2022-10-15T05:23:54;93546.00;;;11.39;100.00
12475;BME280;6302;42.624;23.334;2022-10-15T05:26:23;93554.69;;;11.43;100.00
12475;BME280;6302;42.624;23.334;2022-10-15T05:28:50;93542.91;;;11.47;100.00
12475;BME280;6302;42.624;23.334;2022-10-15T05:31:18;93553.47;;;11.51;100.00
12475;BME280;6302;42.624;23.334;2022-10-15T05:33:46;93552.72;;;11.54;100.00
12475;BME280;6302;42.624;23.334;2022-10-15T05:36:15;93551.16;;;11.56;100.00
12475;BME280;6302;42.624;23.334;2022-10-15T05:38:42;93562.84;;;11.66;100.00
12475;BME280;6302;42.624;23.334;2022-10-15T05:41:11;93562.50;;;11.64;100.00
12475;BME280;6302;42.624;23.334;2022-10-15T05:43:38;93563.22;;;11.71;100.00
12475;BME280;6302;42.624;23.334;2022-10-15T05:46:05;93565.47;;;11.77;100.00
12475;BME280;6302;42.624;23.334;2022-10-15T05:48:32;93573.75;;;11.82;100.00
12475;BME280;6302;42.624;23.334;2022-10-15T05:51:00;93570.72;;;11.80;100.00
12475;BME280;6302;42.624;23.334;2022-10-15T05:53:27;93583.53;;;11.92;100.00
12475;BME280;6302;42.624;23.334;2022-10-15T05:55:54;93579.72;;;11.93;100.00
12475;BME280;6302;42.624;23.334;2022-10-15T05:58:24;93578.94;;;11.96;100.00
12475;BME280;6302;42.624;23.334;2022-10-15T06:00:54;93575.81;;;12.08;100.00
12475;BME280;6302;42.624;23.334;2022-10-15T06:03:22;93585.22;;;12.16;100.00
12475;BME280;6302;42.624;23.334;2022-10-15T06:05:49;93582.13;;;12.21;100.00
12475;BME280;6302;42.624;23.334;2022-10-15T06:08:16;93590.09;;;12.21;100.00
12475;BME280;6302;42.624;23.334;2022-10-15T06:10:43;93583.28;;;12.20;100.00
12475;BME280;6302;42.624;23.334;2022-10-15T06:13:10;93574.16;;;12.21;100.00
12475;BME280;6302;42.624;23.334;2022-10-15T06:15:39;93586.28;;;12.22;100.00
12475;BME280;6302;42.624;23.334;2022-10-15T06:18:07;93588.59;;;12.20;100.00
12475;BME280;6302;42.624;23.334;2022-10-15T06:20:34;93588.13;;;12.29;100.00
12475;BME280;6302;42.624;23.334;2022-10-15T06:23:02;93595.72;;;12.30;100.00
12475;BME280;6302;42.624;23.334;2022-10-15T06:25:29;93595.28;;;12.35;100.00
12475;BME280;6302;42.624;23.334;2022-10-15T06:28:00;93603.56;;;12.41;100.00
12475;BME280;6302;42.624;23.334;2022-10-15T06:30:27;93597.47;;;12.44;100.00
12475;BME280;6302;42.624;23.334;2022-10-15T06:32:55;93603.09;;;12.50;100.00
12475;BME280;6302;42.624;23.334;2022-10-15T06:35:24;93595.97;;;12.39;100.00
12475;BME280;6302;42.624;23.334;2022-10-15T06:37:51;93614.81;;;12.56;100.00
12475;BME280;6302;42.624;23.334;2022-10-15T06:40:18;93610.28;;;12.53;100.00
12475;BME280;6302;42.624;23.334;2022-10-15T06:42:44;93616.38;;;12.53;100.00
12475;BME280;6302;42.624;23.334;2022-10-15T06:45:11;93616.72;;;12.55;100.00
12475;BME280;6302;42.624;23.334;2022-10-15T06:47:39;93617.84;;;12.58;100.00
12475;BME280;6302;42.624;23.334;2022-10-15T06:50:08;93610.94;;;12.64;100.00
12475;BME280;6302;42.624;23.334;2022-10-15T06:52:36;93614.63;;;12.73;100.00
12475;BME280;6302;42.624;23.334;2022-10-15T06:55:04;93620.25;;;12.79;100.00
12475;BME280;6302;42.624;23.334;2022-10-15T06:57:31;93622.72;;;12.96;100.00
12475;BME280;6302;42.624;23.334;2022-10-15T06:59:57;93626.13;;;12.97;100.00
12475;BME280;6302;42.624;23.334;2022-10-15T07:02:24;93612.03;;;13.00;100.00
12475;BME280;6302;42.624;23.334;2022-10-15T07:04:51;93626.41;;;13.10;100.00
12475;BME280;6302;42.624;23.334;2022-10-15T07:07:19;93609.72;;;13.02;100.00
12475;BME280;6302;42.624;23.334;2022-10-15T07:09:46;93627.06;;;13.17;100.00
12475;BME280;6302;42.624;23.334;2022-10-15T07:12:17;93624.81;;;13.16;100.00
12475;BME280;6302;42.624;23.334;2022-10-15T07:14:46;93627.72;;;13.25;100.00
12475;BME280;6302;42.624;23.334;2022-10-15T07:17:13;93625.38;;;13.30;100.00
12475;BME280;6302;42.624;23.334;2022-10-15T07:19:40;93638.59;;;13.37;100.00
12475;BME280;6302;42.624;23.334;2022-10-15T07:22:07;93637.34;;;13.45;100.00
12475;BME280;6302;42.624;23.334;2022-10-15T07:24:37;93582.22;;;13.16;100.00
12475;BME280;6302;42.624;23.334;2022-10-15T07:27:04;93617.97;;;13.45;100.00
12475;BME280;6302;42.624;23.334;2022-10-15T07:29:31;93639.09;;;13.55;100.00
12475;BME280;6302;42.624;23.334;2022-10-15T07:31:59;93637.84;;;13.63;100.00
12475;BME280;6302;42.624;23.334;2022-10-15T07:34:26;93635.53;;;13.65;100.00
12475;BME280;6302;42.624;23.334;2022-10-15T07:36:53;93632.41;;;13.70;100.00
12475;BME280;6302;42.624;23.334;2022-10-15T07:39:19;93629.19;;;13.83;100.00
12475;BME280;6302;42.624;23.334;2022-10-15T07:41:47;93631.47;;;13.84;100.00
12475;BME280;6302;42.624;23.334;2022-10-15T07:44:14;93639.59;;;14.00;100.00
12475;BME280;6302;42.624;23.334;2022-10-15T07:46:41;93633.53;;;14.00;100.00
12475;BME280;6302;42.624;23.334;2022-10-15T07:49:08;93638.72;;;14.07;100.00
12475;BME280;6302;42.624;23.334;2022-10-15T07:51:35;93650.09;;;14.11;100.00
12475;BME280;6302;42.624;23.334;2022-10-15T07:54:03;93645.47;;;13.88;100.00
12475;BME280;6302;42.624;23.334;2022-10-15T07:56:29;93639.66;;;13.97;100.00
12475;BME280;6302;42.624;23.334;2022-10-15T07:58:57;93636.88;;;14.04;100.00
12475;BME280;6302;42.624;23.334;2022-10-15T08:01:24;93640.88;;;14.15;100.00
12475;BME280;6302;42.624;23.334;2022-10-15T08:03:51;93642.88;;;14.34;100.00
12475;BME280;6302;42.624;23.334;2022-10-15T08:06:18;93643.84;;;14.21;100.00
12475;BME280;6302;42.624;23.334;2022-10-15T08:08:45;93647.00;;;14.39;100.00
12475;BME280;6302;42.624;23.334;2022-10-15T08:11:13;93645.69;;;14.47;100.00
12475;BME280;6302;42.624;23.334;2022-10-15T08:13:41;93646.28;;;14.58;100.00
12475;BME280;6302;42.624;23.334;2022-10-15T08:16:11;93642.88;;;14.77;100.00
12475;BME280;6302;42.624;23.334;2022-10-15T08:18:38;93645.06;;;14.82;100.00
12475;BME280;6302;42.624;23.334;2022-10-15T08:21:06;93637.22;;;14.75;100.00
12475;BME280;6302;42.624;23.334;2022-10-15T08:23:33;93633.72;;;14.78;100.00
12475;BME280;6302;42.624;23.334;2022-10-15T08:26:01;93630.59;;;14.83;100.00
12475;BME280;6302;42.624;23.334;2022-10-15T08:28:29;93639.47;;;14.96;100.00
12475;BME280;6302;42.624;23.334;2022-10-15T08:30:57;93633.31;;;14.99;100.00
12475;BME280;6302;42.624;23.334;2022-10-15T08:33:26;93625.31;;;14.99;100.00
12475;BME280;6302;42.624;23.334;2022-10-15T08:35:53;93623.19;;;15.11;100.00
12475;BME280;6302;42.624;23.334;2022-10-15T08:38:20;93630.13;;;15.08;100.00
12475;BME280;6302;42.624;23.334;2022-10-15T08:40:48;93632.16;;;15.01;100.00
12475;BME280;6302;42.624;23.334;2022-10-15T08:43:19;93628.66;;;15.04;100.00
12475;BME280;6302;42.624;23.334;2022-10-15T08:45:48;93625.66;;;15.02;100.00
12475;BME280;6302;42.624;23.334;2022-10-15T08:48:20;93633.88;;;15.11;100.00
12475;BME280;6302;42.624;23.334;2022-10-15T08:50:56;93615.66;;;15.06;100.00
12475;BME280;6302;42.624;23.334;2022-10-15T08:53:25;93632.50;;;15.22;100.00
12475;BME280;6302;42.624;23.334;2022-10-15T08:55:55;93632.69;;;15.31;100.00
12475;BME280;6302;42.624;23.334;2022-10-15T08:58:31;93617.72;;;15.18;100.00
12475;BME280;6302;42.624;23.334;2022-10-15T09:01:08;93632.00;;;15.27;100.00
12475;BME280;6302;42.624;23.334;2022-10-15T09:03:43;93623.78;;;15.38;100.00
12475;BME280;6302;42.624;23.334;2022-10-15T09:06:20;93638.56;;;15.62;97.02
12475;BME280;6302;42.624;23.334;2022-10-15T09:08:53;93642.31;;;15.65;97.82
12475;BME280;6302;42.624;23.334;2022-10-15T09:11:29;93638.56;;;15.78;95.07
12475;BME280;6302;42.624;23.334;2022-10-15T09:14:02;93639.75;;;15.93;92.49
12475;BME280;6302;42.624;23.334;2022-10-15T09:16:34;93635.00;;;16.01;92.59
12475;BME280;6302;42.624;23.334;2022-10-15T09:19:04;93633.94;;;16.14;90.46
12475;BME280;6302;42.624;23.334;2022-10-15T09:21:36;93635.06;;;16.29;90.11
12475;BME280;6302;42.624;23.334;2022-10-15T09:24:04;93641.34;;;16.39;88.87
12475;BME280;6302;42.624;23.334;2022-10-15T09:26:39;93641.34;;;16.55;85.42
12475;BME280;6302;42.624;23.334;2022-10-15T09:29:17;93631.88;;;16.67;85.87
12475;BME280;6302;42.624;23.334;2022-10-15T09:31:50;93631.69;;;16.74;84.23
12475;BME280;6302;42.624;23.334;2022-10-15T09:34:23;93635.38;;;16.80;81.52
12475;BME280;6302;42.624;23.334;2022-10-15T09:36:59;93622.78;;;16.93;81.72
12475;BME280;6302;42.624;23.334;2022-10-15T09:39:37;93620.66;;;17.01;80.99
12475;BME280;6302;42.624;23.334;2022-10-15T09:42:15;93625.41;;;17.09;80.54
12475;BME280;6302;42.624;23.334;2022-10-15T09:44:46;93625.75;;;17.24;80.08
12475;BME280;6302;42.624;23.334;2022-10-15T09:47:16;93619.56;;;17.39;77.27
12475;BME280;6302;42.624;23.334;2022-10-15T09:49:43;93617.75;;;17.36;75.96
12475;BME280;6302;42.624;23.334;2022-10-15T09:52:15;93621.72;;;17.44;76.63
12475;BME280;6302;42.624;23.334;2022-10-15T09:54:54;93621.50;;;17.39;75.33
12475;BME280;6302;42.624;23.334;2022-10-15T09:57:25;93616.56;;;17.37;75.38
12475;BME280;6302;42.624;23.334;2022-10-15T09:59:53;93617.75;;;17.36;73.88
12475;BME280;6302;42.624;23.334;2022-10-15T10:02:22;93599.91;;;17.05;72.73
12475;BME280;6302;42.624;23.334;2022-10-15T10:04:49;93625.47;;;16.93;75.59
12475;BME280;6302;42.624;23.334;2022-10-15T10:07:29;93631.91;;;16.96;75.66
12475;BME280;6302;42.624;23.334;2022-10-15T10:09:59;93631.00;;;16.86;76.75
12475;BME280;6302;42.624;23.334;2022-10-15T10:12:29;93620.94;;;16.90;77.39
12475;BME280;6302;42.624;23.334;2022-10-15T10:15:01;93638.94;;;16.89;76.57
12475;BME280;6302;42.624;23.334;2022-10-15T10:17:29;93622.88;;;16.89;74.59
12475;BME280;6302;42.624;23.334;2022-10-15T10:20:12;93627.56;;;16.85;74.64
12475;BME280;6302;42.624;23.334;2022-10-15T10:22:45;93582.59;;;16.80;73.08
12475;BME280;6302;42.624;23.334;2022-10-15T10:25:27;93622.56;;;17.29;72.13
12475;BME280;6302;42.624;23.334;2022-10-15T10:27:56;93618.34;;;17.57;69.98
12475;BME280;6302;42.624;23.334;2022-10-15T10:30:23;93616.44;;;17.70;68.29
12475;BME280;6302;42.624;23.334;2022-10-15T10:32:54;93612.78;;;17.76;65.48
12475;BME280;6302;42.624;23.334;2022-10-15T10:35:23;93607.81;;;18.00;65.07
12475;BME280;6302;42.624;23.334;2022-10-15T10:37:52;93610.84;;;17.89;63.49
12475;BME280;6302;42.624;23.334;2022-10-15T10:40:22;93589.94;;;17.72;63.79
12475;BME280;6302;42.624;23.334;2022-10-15T10:43:09;93608.16;;;17.64;66.01
12475;BME280;6302;42.624;23.334;2022-10-15T10:45:37;93603.81;;;17.41;66.21
12475;BME280;6302;42.624;23.334;2022-10-15T10:48:19;93599.09;;;17.45;68.09
12475;BME280;6302;42.624;23.334;2022-10-15T10:50:46;93603.94;;;17.50;68.38
12475;BME280;6302;42.624;23.334;2022-10-15T10:53:19;93597.66;;;17.70;66.74
12475;BME280;6302;42.624;23.334;2022-10-15T10:55:47;93598.63;;;17.76;66.38
12475;BME280;6302;42.624;23.334;2022-10-15T10:58:17;93593.78;;;17.71;67.21
12475;BME280;6302;42.624;23.334;2022-10-15T11:00:46;93600.13;;;17.64;66.04
12475;BME280;6302;42.624;23.334;2022-10-15T11:03:21;93594.06;;;17.35;68.09
12475;BME280;6302;42.624;23.334;2022-10-15T11:05:55;93597.56;;;17.19;68.56
12475;BME280;6302;42.624;23.334;2022-10-15T11:08:29;93591.78;;;17.08;68.74
12475;BME280;6302;42.624;23.334;2022-10-15T11:11:06;93597.03;;;17.12;69.65
12475;BME280;6302;42.624;23.334;2022-10-15T11:13:47;93591.13;;;17.17;69.41
12475;BME280;6302;42.624;23.334;2022-10-15T11:16:21;93588.91;;;17.15;68.38
12475;BME280;6302;42.624;23.334;2022-10-15T11:18:57;93592.75;;;17.14;69.27
12475;BME280;6302;42.624;23.334;2022-10-15T11:21:38;93586.31;;;17.12;71.42
12475;BME280;6302;42.624;23.334;2022-10-15T11:24:14;93589.81;;;17.09;70.09
12475;BME280;6302;42.624;23.334;2022-10-15T11:26:52;93586.09;;;17.19;71.57
12475;BME280;6302;42.624;23.334;2022-10-15T11:29:29;93589.34;;;17.26;71.07
12475;BME280;6302;42.624;23.334;2022-10-15T11:32:09;93590.75;;;17.43;68.75
12475;BME280;6302;42.624;23.334;2022-10-15T11:34:51;93587.88;;;17.63;66.24
12475;BME280;6302;42.624;23.334;2022-10-15T11:37:35;93591.22;;;17.92;65.27
12475;BME280;6302;42.624;23.334;2022-10-15T11:40:19;93593.25;;;18.01;62.74
12475;BME280;6302;42.624;23.334;2022-10-15T11:42:53;93576.94;;;17.95;61.78
12475;BME280;6302;42.624;23.334;2022-10-15T11:45:38;93555.94;;;17.94;61.65
12475;BME280;6302;42.624;23.334;2022-10-15T11:48:12;93572.91;;;18.25;59.14
12475;BME280;6302;42.624;23.334;2022-10-15T11:50:46;93569.53;;;18.12;59.42
12475;BME280;6302;42.624;23.334;2022-10-15T11:53:41;93573.38;;;18.11;62.47
12475;BME280;6302;42.624;23.334;2022-10-15T11:56:20;93566.44;;;18.35;61.69
12475;BME280;6302;42.624;23.334;2022-10-15T11:58:51;93564.50;;;18.48;62.57
12475;BME280;6302;42.624;23.334;2022-10-15T12:01:22;93582.00;;;18.40;60.91
12475;BME280;6302;42.624;23.334;2022-10-15T12:03:54;93572.56;;;18.36;59.84
12475;BME280;6302;42.624;23.334;2022-10-15T12:06:25;93578.75;;;18.45;60.67
12475;BME280;6302;42.624;23.334;2022-10-15T12:08:54;93580.78;;;18.66;60.90
12475;BME280;6302;42.624;23.334;2022-10-15T12:11:31;93587.69;;;18.76;59.30
12475;BME280;6302;42.624;23.334;2022-10-15T12:14:14;93583.72;;;18.81;61.31
12475;BME280;6302;42.624;23.334;2022-10-15T12:17:04;93586.50;;;18.56;60.66
12475;BME280;6302;42.624;23.334;2022-10-15T12:19:37;93590.91;;;18.37;59.81
12475;BME280;6302;42.624;23.334;2022-10-15T12:22:06;93590.81;;;18.41;60.00
12475;BME280;6302;42.624;23.334;2022-10-15T12:24:50;93579.56;;;18.33;60.37
12475;BME280;6302;42.624;23.334;2022-10-15T12:27:25;93581.50;;;18.20;61.83
12475;BME280;6302;42.624;23.334;2022-10-15T12:30:18;93585.81;;;18.05;63.42
12475;BME280;6302;42.624;23.334;2022-10-15T12:32:46;93578.53;;;18.05;63.88
12475;BME280;6302;42.624;23.334;2022-10-15T12:35:19;93582.44;;;17.92;64.42
12475;BME280;6302;42.624;23.334;2022-10-15T12:37:48;93579.44;;;17.90;66.20
12475;BME280;6302;42.624;23.334;2022-10-15T12:40:26;93578.25;;;17.78;63.60
12475;BME280;6302;42.624;23.334;2022-10-15T12:42:56;93583.72;;;17.87;65.03
12475;BME280;6302;42.624;23.334;2022-10-15T12:45:27;93579.84;;;17.88;65.66
12475;BME280;6302;42.624;23.334;2022-10-15T12:48:17;93574.81;;;17.78;66.66
12475;BME280;6302;42.624;23.334;2022-10-15T12:50:44;93578.69;;;17.77;66.77
12475;BME280;6302;42.624;23.334;2022-10-15T12:53:30;93579.53;;;17.74;68.26
12475;BME280;6302;42.624;23.334;2022-10-15T12:56:20;93571.09;;;17.63;67.00
12475;BME280;6302;42.624;23.334;2022-10-15T12:58:50;93575.25;;;17.64;67.43
12475;BME280;6302;42.624;23.334;2022-10-15T13:01:27;93580.06;;;17.69;67.13
12475;BME280;6302;42.624;23.334;2022-10-15T13:03:55;93569.88;;;17.64;65.81
12475;BME280;6302;42.624;23.334;2022-10-15T13:06:40;93571.28;;;17.55;64.81
12475;BME280;6302;42.624;23.334;2022-10-15T13:09:26;93580.19;;;17.52;66.38
12475;BME280;6302;42.624;23.334;2022-10-15T13:11:55;93580.34;;;17.45;68.69